createdAt,value
2018-01-14T00:00:39.812Z,4.90
2018-01-14T00:11:18.414Z,4.80
2018-01-14T00:21:20.940Z,4.80
2018-01-14T00:23:55.274Z,4.80
2018-01-14T00:26:48.033Z,4.90
2018-01-14T00:29:17.062Z,4.80
2018-01-14T00:31:55.314Z,4.80
2018-01-14T00:34:25.997Z,4.80
2018-01-14T00:40:00.744Z,4.70
2018-01-14T00:45:11.312Z,4.70
2018-01-14T00:47:39.471Z,4.70
2018-01-14T00:50:07.565Z,4.70
2018-01-14T00:58:49.914Z,4.70
2018-01-14T01:04:01.570Z,4.70
2018-01-14T01:06:34.605Z,4.70
2018-01-14T01:09:02.684Z,4.70
2018-01-14T01:12:04.061Z,4.70
2018-01-14T01:14:32.965Z,4.60
2018-01-14T01:17:06.581Z,4.60
2018-01-14T01:19:39.374Z,4.60
2018-01-14T01:22:08.371Z,4.60
2018-01-14T01:24:39.649Z,4.60
2018-01-14T01:27:08.819Z,4.50
2018-01-14T01:32:13.529Z,4.50
2018-01-14T01:34:41.619Z,4.50
2018-01-14T01:46:22.772Z,4.50
2018-01-14T01:48:50.882Z,4.50
2018-01-14T01:51:19.083Z,4.40
2018-01-14T01:56:27.126Z,4.40
2018-01-14T01:58:57.574Z,4.40
2018-01-14T02:01:25.695Z,4.40
2018-01-14T02:03:55.799Z,4.40
2018-01-14T02:06:23.897Z,4.40
2018-01-14T02:08:52.018Z,4.40
2018-01-14T02:11:20.879Z,4.40
2018-01-14T02:13:50.779Z,4.50
2018-01-14T02:16:18.862Z,4.50
2018-01-14T02:18:48.339Z,4.50
2018-01-14T02:21:18.351Z,4.50
2018-01-14T02:23:47.568Z,4.40
2018-01-14T02:26:15.638Z,4.50
2018-01-14T02:28:43.770Z,4.50
2018-01-14T02:31:14.599Z,4.40
2018-01-14T02:33:42.785Z,4.50
2018-01-14T02:36:11.666Z,4.40
2018-01-14T02:38:46.495Z,4.40
2018-01-14T02:41:14.611Z,4.30
2018-01-14T02:43:42.779Z,4.30
2018-01-14T02:46:11.804Z,4.30
2018-01-14T02:48:39.898Z,4.30
2018-01-14T02:54:03.187Z,4.20
2018-01-14T02:56:36.053Z,4.30
2018-01-14T02:59:04.195Z,4.30
2018-01-14T03:04:11.519Z,4.30
2018-01-14T03:06:40.815Z,4.30
2018-01-14T03:09:10.076Z,4.30
2018-01-14T03:11:38.153Z,4.20
2018-01-14T03:14:07.199Z,4.20
2018-01-14T03:16:35.268Z,4.20
2018-01-14T03:19:03.647Z,4.10
2018-01-14T03:21:31.722Z,4.10
2018-01-14T03:23:59.814Z,4.10
2018-01-14T03:26:28.722Z,4.10
2018-01-14T03:28:56.823Z,4.10
2018-01-14T03:31:26.367Z,4.10
2018-01-14T03:33:54.504Z,4.10
2018-01-14T03:36:24.650Z,4.10
2018-01-14T03:38:55.446Z,4.10
2018-01-14T03:41:28.739Z,4.10
2018-01-14T03:44:01.087Z,4.10
2018-01-14T03:49:03.739Z,4.10
2018-01-14T03:51:38.620Z,4.10
2018-01-14T04:00:35.816Z,4.10
2018-01-14T04:05:38.020Z,4.10
2018-01-14T04:08:08.014Z,4.10
2018-01-14T04:10:38.154Z,4.10
2018-01-14T04:15:43.301Z,4.10
2018-01-14T04:18:12.387Z,4.10
2018-01-14T04:20:41.312Z,4.10
2018-01-14T04:23:20.946Z,4.00
2018-01-14T04:33:33.815Z,4.00
2018-01-14T04:55:31.501Z,3.90
2018-01-14T05:08:45.719Z,3.90
2018-01-14T05:11:22.594Z,3.90
2018-01-14T05:13:51.804Z,3.90
2018-01-14T05:21:45.601Z,3.90
2018-01-14T05:24:14.596Z,3.80
2018-01-14T05:26:46.284Z,3.90
2018-01-14T05:29:19.284Z,3.90
2018-01-14T05:31:47.691Z,3.90
2018-01-14T05:34:15.787Z,3.80
2018-01-14T05:36:44.710Z,3.80
2018-01-14T05:39:15.736Z,3.80
2018-01-14T05:44:26.168Z,3.80
2018-01-14T05:46:56.930Z,3.80
2018-01-14T05:49:25.871Z,3.80
2018-01-14T05:54:27.346Z,3.80
2018-01-14T05:56:57.298Z,3.90
2018-01-14T06:04:33.021Z,3.80
2018-01-14T06:07:03.204Z,3.70
2018-01-14T06:09:32.967Z,3.70
2018-01-14T06:12:01.103Z,3.80
2018-01-14T06:14:35.147Z,3.80
2018-01-14T06:17:03.673Z,3.80
2018-01-14T06:19:32.650Z,3.80
2018-01-14T06:22:15.117Z,3.80
2018-01-14T06:24:46.536Z,3.80
2018-01-14T06:27:17.748Z,3.80
2018-01-14T06:29:47.709Z,3.70
2018-01-14T06:34:56.719Z,3.80
2018-01-14T06:37:27.028Z,3.70
2018-01-14T06:39:55.164Z,3.70
2018-01-14T06:45:04.589Z,3.70
2018-01-14T06:47:35.571Z,3.70
2018-01-14T06:50:03.659Z,3.60
2018-01-14T06:55:09.205Z,3.70
2018-01-14T06:57:43.367Z,3.70
2018-01-14T07:06:10.098Z,3.70
2018-01-14T07:11:13.158Z,3.60
2018-01-14T07:13:42.586Z,3.60
2018-01-14T07:16:13.821Z,3.60
2018-01-14T07:21:18.655Z,3.60
2018-01-14T07:23:54.902Z,3.60
2018-01-14T07:26:23.873Z,3.50
2018-01-14T07:31:31.628Z,3.50
2018-01-14T07:34:03.999Z,3.50
2018-01-14T07:42:03.930Z,3.60
2018-01-14T07:44:32.046Z,3.60
2018-01-14T07:47:00.265Z,3.60
2018-01-14T07:49:31.324Z,3.60
2018-01-14T07:52:01.845Z,3.50
2018-01-14T07:57:17.349Z,3.50
2018-01-14T07:59:45.528Z,3.50
2018-01-14T08:02:13.617Z,3.40
2018-01-14T08:04:42.762Z,3.50
2018-01-14T08:11:14.372Z,3.50
2018-01-14T08:19:43.442Z,3.30
2018-01-14T08:22:11.540Z,3.40
2018-01-14T08:24:40.351Z,3.50
2018-01-14T08:27:12.451Z,3.50
2018-01-14T08:29:42.866Z,3.40
2018-01-14T08:32:11.183Z,3.40
2018-01-14T08:34:40.440Z,3.40
2018-01-14T08:37:10.632Z,3.40
2018-01-14T08:39:38.819Z,3.50
2018-01-14T08:42:10.949Z,3.50
2018-01-14T08:44:39.060Z,3.50
2018-01-14T08:47:12.515Z,3.50
2018-01-14T08:49:40.622Z,3.50
2018-01-14T08:54:54.902Z,3.40
2018-01-14T08:57:31.506Z,3.50
2018-01-14T09:00:00.430Z,3.50
2018-01-14T09:02:34.994Z,3.50
2018-01-14T09:05:03.149Z,3.40
2018-01-14T09:07:31.298Z,3.40
2018-01-14T09:10:05.583Z,3.50
2018-01-14T09:18:55.100Z,3.50
2018-01-14T09:21:29.093Z,3.50
2018-01-14T09:26:34.343Z,3.40
2018-01-14T10:10:24.121Z,3.70
2018-01-14T10:24:25.110Z,3.80
2018-01-14T10:58:36.185Z,4.00
2018-01-14T11:01:11.642Z,4.00
2018-01-14T11:06:43.733Z,4.10
2018-01-14T11:09:12.036Z,4.10
2018-01-14T11:11:48.111Z,4.20
2018-01-14T11:14:19.693Z,4.20
2018-01-14T11:16:54.826Z,4.20
2018-01-14T11:19:31.269Z,4.10
2018-01-14T11:22:08.304Z,4.20
2018-01-14T11:27:30.401Z,4.20
2018-01-14T11:30:12.992Z,4.20
2018-01-14T11:32:46.717Z,4.20
2018-01-14T11:38:06.821Z,4.20
2018-01-14T11:40:53.240Z,4.20
2018-01-14T11:54:48.520Z,4.30
2018-01-14T12:00:04.880Z,4.30
2018-01-14T12:05:17.752Z,4.40
2018-01-14T12:14:16.692Z,4.60
2018-01-14T12:16:46.829Z,4.60
2018-01-14T12:21:51.712Z,4.70
2018-01-14T12:27:05.032Z,4.70
2018-01-14T12:29:42.388Z,4.70
2018-01-14T12:44:06.990Z,4.50
2018-01-14T12:46:40.238Z,4.50
2018-01-14T12:49:17.625Z,4.60
2018-01-14T12:51:53.745Z,4.50
2018-01-14T12:54:25.764Z,4.60
2018-01-14T13:09:26.164Z,4.70
2018-01-14T13:15:10.164Z,4.70
2018-01-14T13:17:39.029Z,4.70
2018-01-14T13:20:07.210Z,4.70
2018-01-14T13:22:35.379Z,4.80
2018-01-14T13:25:03.503Z,4.70
2018-01-14T13:27:35.486Z,4.80
2018-01-14T13:30:03.642Z,5.00
2018-01-14T13:32:32.762Z,5.50
2018-01-14T13:35:00.895Z,6.00
2018-01-14T13:37:28.987Z,6.80
2018-01-14T13:39:57.947Z,7.20
2018-01-14T13:42:27.731Z,7.70
2018-01-14T13:44:56.768Z,7.20
2018-01-14T13:47:27.955Z,7.20
2018-01-14T13:49:59.024Z,7.90
2018-01-14T13:52:29.145Z,8.10
2018-01-14T13:55:00.004Z,7.80
2018-01-14T13:57:41.213Z,7.90
2018-01-14T14:00:10.466Z,7.80
2018-01-14T14:02:39.376Z,8.10
2018-01-14T14:05:10.477Z,8.20
2018-01-14T14:07:38.566Z,8.10
2018-01-14T14:10:06.747Z,7.40
2018-01-14T14:15:49.269Z,7.00
2018-01-14T14:23:36.510Z,4.40
2018-01-14T14:28:40.351Z,5.30
2018-01-14T14:31:09.682Z,5.10
2018-01-14T14:33:37.807Z,5.10
2018-01-14T14:36:06.972Z,5.00
2018-01-14T14:38:35.173Z,4.90
2018-01-14T14:41:07.198Z,4.90
2018-01-14T14:43:35.296Z,4.90
2018-01-14T14:46:07.433Z,4.70
2018-01-14T14:48:36.787Z,4.70
2018-01-14T14:51:04.946Z,4.60
2018-01-14T14:53:33.062Z,4.50
2018-01-14T14:56:07.495Z,4.50
2018-01-14T14:58:35.863Z,4.60
2018-01-14T15:01:03.942Z,4.50
2018-01-14T15:03:32.899Z,4.40
2018-01-14T15:06:01.048Z,4.30
2018-01-14T15:08:31.280Z,4.30
2018-01-14T15:10:59.373Z,4.30
2018-01-14T15:13:27.471Z,4.30
2018-01-14T15:15:56.401Z,4.30
2018-01-14T15:18:24.576Z,4.30
2018-01-14T15:20:52.652Z,4.30
2018-01-14T15:26:01.324Z,4.20
2018-01-14T15:28:30.192Z,4.20
2018-01-14T15:30:58.379Z,4.10
2018-01-14T15:33:26.464Z,4.10
2018-01-14T15:35:54.636Z,4.00
2018-01-14T15:38:29.950Z,4.00
2018-01-14T15:40:58.130Z,4.00
2018-01-14T15:43:27.296Z,3.90
2018-01-14T15:45:55.523Z,3.90
2018-01-14T15:48:27.531Z,3.90
2018-01-14T15:50:55.832Z,3.90
2018-01-14T15:53:24.860Z,3.80
2018-01-14T15:55:53.354Z,3.80
2018-01-14T15:58:21.553Z,3.80
2018-01-14T16:00:49.667Z,3.80
2018-01-14T16:03:17.853Z,3.70
2018-01-14T16:05:45.935Z,3.80
2018-01-14T16:08:14.110Z,3.70
2018-01-14T16:10:42.783Z,3.60
2018-01-14T16:13:10.911Z,3.60
2018-01-14T16:15:51.076Z,3.60
2018-01-14T16:18:21.220Z,3.50
2018-01-14T16:20:50.546Z,3.50
2018-01-14T16:23:18.632Z,3.50
2018-01-14T16:25:47.611Z,3.40
2018-01-14T16:28:15.828Z,3.30
2018-01-14T16:30:44.255Z,3.40
2018-01-14T16:33:12.471Z,3.30
2018-01-14T16:38:56.016Z,3.30
2018-01-14T16:41:24.147Z,3.30
2018-01-14T16:43:52.375Z,3.30
2018-01-14T16:46:21.483Z,3.20
2018-01-14T16:48:49.614Z,3.20
2018-01-14T16:51:27.317Z,3.20
2018-01-14T16:53:56.286Z,3.10
2018-01-14T17:04:39.104Z,3.10
2018-01-14T17:07:07.229Z,3.10
2018-01-14T17:09:36.443Z,3.10
2018-01-14T17:12:04.632Z,2.60
2018-01-14T17:14:33.815Z,3.00
2018-01-14T17:17:02.843Z,3.00
2018-01-14T17:19:31.016Z,3.00
2018-01-14T17:21:59.101Z,3.00
2018-01-14T17:27:06.312Z,2.90
2018-01-14T17:29:34.462Z,2.80
2018-01-14T17:32:02.632Z,2.80
2018-01-14T17:34:30.812Z,2.80
2018-01-14T17:36:59.009Z,2.80
2018-01-14T17:39:27.151Z,2.70
2018-01-14T17:41:56.247Z,2.80
2018-01-14T17:44:24.348Z,2.80
2018-01-14T17:46:52.489Z,2.80
2018-01-14T17:49:20.583Z,2.70
2018-01-14T17:51:50.629Z,2.70
2018-01-14T17:54:18.795Z,2.70
2018-01-14T17:56:46.891Z,2.60
2018-01-14T17:59:15.995Z,2.60
2018-01-14T18:01:44.086Z,2.70
2018-01-14T18:04:12.487Z,2.60
2018-01-14T18:06:40.624Z,2.70
2018-01-14T18:09:08.781Z,2.60
2018-01-14T18:11:36.880Z,2.60
2018-01-14T18:14:05.028Z,2.60
2018-01-14T18:16:33.197Z,2.60
2018-01-14T18:19:01.391Z,2.60
2018-01-14T18:21:29.994Z,2.60
2018-01-14T18:23:58.075Z,2.60
2018-01-14T18:26:26.278Z,2.50
2018-01-14T18:28:55.370Z,2.50
2018-01-14T18:31:23.504Z,2.50
2018-01-14T18:33:52.454Z,2.50
2018-01-14T18:36:20.695Z,2.50
2018-01-14T18:38:48.830Z,2.40
2018-01-14T18:41:16.975Z,2.50
2018-01-14T18:43:45.379Z,2.50
2018-01-14T18:46:13.480Z,2.50
2018-01-14T18:48:41.651Z,2.40
2018-01-14T18:51:09.946Z,2.40
2018-01-14T18:53:38.042Z,2.50
2018-01-14T18:56:06.253Z,2.40
2018-01-14T18:58:34.323Z,2.40
2018-01-14T19:01:02.491Z,2.40
2018-01-14T19:03:30.589Z,2.40
2018-01-14T19:05:59.449Z,2.50
2018-01-14T19:08:27.567Z,2.40
2018-01-14T19:10:55.696Z,2.40
2018-01-14T19:13:29.881Z,2.40
2018-01-14T19:15:58.001Z,2.40
2018-01-14T19:18:30.572Z,2.40
2018-01-14T19:20:58.658Z,2.40
2018-01-14T19:23:26.841Z,2.40
2018-01-14T19:25:54.966Z,2.40
2018-01-14T19:28:23.068Z,2.40
2018-01-14T19:30:51.817Z,2.40
2018-01-14T19:33:20.599Z,2.40
2018-01-14T19:35:49.094Z,2.30
2018-01-14T19:38:17.193Z,2.30
2018-01-14T19:40:45.481Z,2.30
2018-01-14T19:43:13.607Z,2.30
2018-01-14T19:45:41.722Z,2.30
2018-01-14T19:48:09.881Z,2.30
2018-01-14T19:50:38.069Z,2.30
2018-01-14T19:53:07.020Z,2.30
2018-01-14T19:55:35.456Z,2.30
2018-01-14T19:58:03.785Z,2.30
2018-01-14T20:00:31.932Z,2.20
2018-01-14T20:03:00.131Z,2.30
2018-01-14T20:05:28.272Z,2.30
2018-01-14T20:07:56.381Z,2.20
2018-01-14T20:10:24.584Z,2.20
2018-01-14T20:12:52.737Z,2.20
2018-01-14T20:15:21.127Z,2.20
2018-01-14T20:17:49.252Z,2.20
2018-01-14T20:20:17.400Z,2.20
2018-01-14T20:22:46.402Z,2.20
2018-01-14T20:25:18.261Z,2.10
2018-01-14T20:27:46.451Z,2.10
2018-01-14T20:30:14.618Z,2.10
2018-01-14T20:32:42.829Z,2.10
2018-01-14T20:35:11.029Z,2.10
2018-01-14T20:37:39.281Z,2.10
2018-01-14T20:40:07.383Z,2.10
2018-01-14T20:42:35.645Z,2.10
2018-01-14T20:45:03.824Z,2.10
2018-01-14T20:47:31.946Z,2.10
2018-01-14T20:50:00.176Z,2.00
2018-01-14T20:52:29.486Z,2.00
2018-01-14T20:59:02.363Z,2.00
2018-01-14T21:01:30.514Z,2.10
2018-01-14T21:06:32.096Z,2.10
2018-01-14T21:09:00.200Z,2.00
2018-01-14T21:11:28.816Z,2.00
2018-01-14T21:17:12.984Z,2.00
2018-01-14T21:19:41.095Z,2.00
2018-01-14T21:22:09.227Z,2.00
2018-01-14T21:24:37.503Z,1.90
2018-01-14T21:27:06.659Z,1.90
2018-01-14T21:29:34.816Z,1.90
2018-01-14T21:32:02.915Z,1.90
2018-01-14T21:34:31.345Z,2.00
2018-01-14T21:37:00.202Z,2.00
2018-01-14T21:39:28.296Z,2.00
2018-01-14T21:41:57.218Z,1.90
2018-01-14T21:44:25.351Z,1.90
2018-01-14T21:46:53.714Z,2.00
2018-01-14T21:49:25.152Z,2.00
2018-01-14T21:51:56.370Z,2.00
2018-01-14T21:54:24.484Z,2.00
2018-01-14T21:57:01.842Z,1.90
2018-01-14T21:59:37.809Z,1.90
2018-01-14T22:04:39.378Z,1.90
2018-01-14T22:11:17.147Z,1.90
2018-01-14T22:13:45.278Z,1.80
2018-01-14T22:31:03.703Z,1.90
2018-01-14T22:36:56.979Z,1.80
2018-01-14T22:56:31.905Z,1.90
2018-01-14T23:02:13.440Z,1.90
2018-01-14T23:34:02.733Z,1.80
2018-01-14T23:52:18.353Z,2.10
